Bristol, West Virginia
Current Conditions -  °F | °C
As of 6:53 PM on Monday 22 Dec 2014 (Local Time) from KCKB Reporting Station
Clear Clear  
Wind Chill: 38°   Ceiling: Unl
Heat Index: 43°   Visibility: 10mi
Dew Point: 38°   Wind: 9mph
Humidity: 82%   Direction: 90°E
Pressure: 29.93"   Gusts: NA
Location:  39.29°N, 80.52°W
Report Text: KCKB 222353Z 09008KT 10SM CLR 06/03 A2993 RMK AO2 SLP138 60000 T00610033 10106 20061 58010
Loading
Personal Weather Stations






























Interactive Weather Map New forecast layout! Learn more

10-Day Weather Forecast

Advertisements
Track Severe Weather on mobile